createdAt,value
2023-04-15T00:01:12.118Z,100151.72
2023-04-15T00:03:39.864Z,100146.47
2023-04-15T00:06:15.344Z,100142.16
2023-04-15T00:08:42.636Z,100143.03
2023-04-15T00:11:09.779Z,100144.03
2023-04-15T00:13:37.885Z,100139.84
2023-04-15T00:16:06.466Z,100139.06
2023-04-15T00:18:34.006Z,100148.00
2023-04-15T00:21:01.242Z,100141.09
2023-04-15T00:23:29.165Z,100142.94
2023-04-15T00:25:56.623Z,100135.94
2023-04-15T00:28:24.210Z,100136.84
2023-04-15T00:30:53.661Z,100137.81
2023-04-15T00:33:20.965Z,100137.00
2023-04-15T00:35:47.896Z,100131.81
2023-04-15T00:38:15.196Z,100124.88
2023-04-15T00:40:42.649Z,100127.59
2023-04-15T00:43:10.286Z,100121.63
2023-04-15T00:45:37.491Z,100115.38
2023-04-15T00:48:05.770Z,100122.53
2023-04-15T00:50:33.807Z,100114.78
2023-04-15T00:53:01.426Z,100115.53
2023-04-15T00:55:28.527Z,100113.78
2023-04-15T00:57:57.620Z,100116.50
2023-04-15T01:00:25.010Z,100114.91
2023-04-15T01:02:52.491Z,100115.91
2023-04-15T01:05:20.065Z,100117.72
2023-04-15T01:07:48.342Z,100109.75
2023-04-15T01:10:15.448Z,100125.66
2023-04-15T01:12:43.436Z,100130.97
2023-04-15T01:15:11.263Z,100130.97
2023-04-15T01:17:39.800Z,100137.97
2023-04-15T01:20:10.199Z,100142.31
2023-04-15T01:22:38.464Z,100149.31
2023-04-15T01:25:18.034Z,100159.13
2023-04-15T01:27:45.739Z,100165.97
2023-04-15T01:30:12.800Z,100177.44
2023-04-15T01:32:40.284Z,100172.00
2023-04-15T01:35:07.877Z,100178.13
2023-04-15T01:37:36.013Z,100174.47
2023-04-15T01:40:03.754Z,100165.56
2023-04-15T01:42:32.777Z,100176.06
2023-04-15T01:44:59.884Z,100166.34
2023-04-15T01:47:27.242Z,100161.06
2023-04-15T01:49:54.289Z,100165.56
2023-04-15T01:52:21.586Z,100171.88
2023-04-15T01:54:48.638Z,100165.72
2023-04-15T01:57:17.457Z,100168.41
2023-04-15T01:59:44.748Z,100164.06
2023-04-15T02:02:12.986Z,100163.16
2023-04-15T02:04:40.219Z,100172.88
2023-04-15T02:07:08.817Z,100178.16
2023-04-15T02:09:35.810Z,100187.78
2023-04-15T02:12:03.297Z,100188.63
2023-04-15T02:14:30.535Z,100187.84
2023-04-15T02:16:58.035Z,100192.16
2023-04-15T02:19:25.373Z,100193.94
2023-04-15T02:21:52.665Z,100191.22
2023-04-15T02:24:19.589Z,100180.63
2023-04-15T02:26:46.926Z,100191.22
2023-04-15T02:29:13.916Z,100194.66
2023-04-15T02:31:42.420Z,100198.25
2023-04-15T02:34:09.552Z,100191.22
2023-04-15T02:36:37.237Z,100185.91
2023-04-15T02:39:04.499Z,100192.06
2023-04-15T02:41:31.854Z,100192.88
2023-04-15T02:43:58.808Z,100185.81
2023-04-15T02:46:27.717Z,100190.16
2023-04-15T02:48:54.797Z,100188.31
2023-04-15T02:51:26.561Z,100191.91
2023-04-15T02:53:53.724Z,100181.28
2023-04-15T02:56:24.367Z,100156.63
2023-04-15T02:58:51.505Z,100147.88
2023-04-15T03:01:21.527Z,100155.91
2023-04-15T03:03:48.722Z,100169.22
2023-04-15T03:06:16.598Z,100175.31
2023-04-15T03:08:43.716Z,100176.97
2023-04-15T03:11:11.349Z,100178.66
2023-04-15T03:13:39.631Z,100177.69
2023-04-15T03:16:07.595Z,100184.59
2023-04-15T03:18:34.831Z,100180.03
2023-04-15T03:21:03.031Z,100176.47
2023-04-15T03:23:31.705Z,100186.00
2023-04-15T03:26:02.668Z,100188.50
2023-04-15T03:28:31.309Z,100184.88
2023-04-15T03:30:59.687Z,100180.50
2023-04-15T03:33:26.744Z,100191.91
2023-04-15T03:35:54.060Z,100183.22
2023-04-15T03:38:21.149Z,100179.44
2023-04-15T03:40:49.543Z,100183.03
2023-04-15T03:43:16.748Z,100188.34
2023-04-15T03:45:44.054Z,100186.59
2023-04-15T03:48:17.893Z,100191.91
2023-04-15T03:50:46.747Z,100179.50
2023-04-15T03:53:13.971Z,100180.38
2023-04-15T03:55:41.344Z,100189.25
2023-04-15T03:58:08.317Z,100195.50
2023-04-15T04:00:35.652Z,100209.63
2023-04-15T04:03:03.596Z,100205.22
2023-04-15T04:05:32.972Z,100209.69
2023-04-15T04:08:00.070Z,100212.38
2023-04-15T04:10:28.538Z,100215.03
2023-04-15T04:12:55.474Z,100218.69
2023-04-15T04:15:22.803Z,100225.84
2023-04-15T04:17:49.992Z,100225.81
2023-04-15T04:20:17.435Z,100221.41
2023-04-15T04:22:44.649Z,100231.22
2023-04-15T04:25:11.996Z,100225.97
2023-04-15T04:27:39.152Z,100232.16
2023-04-15T04:30:07.409Z,100230.47
2023-04-15T04:32:34.448Z,100223.41
2023-04-15T04:35:02.414Z,100234.06
2023-04-15T04:37:29.776Z,100241.28
2023-04-15T04:39:57.092Z,100244.81
2023-04-15T04:42:24.133Z,100241.28
2023-04-15T04:44:51.803Z,100237.84
2023-04-15T04:47:18.757Z,100238.69
2023-04-15T04:49:46.206Z,100233.41
2023-04-15T04:52:13.290Z,100224.53
2023-04-15T04:54:40.623Z,100226.22
2023-04-15T04:57:08.212Z,100217.38
2023-04-15T04:59:36.001Z,100212.91
2023-04-15T05:02:04.203Z,100220.06
2023-04-15T05:04:32.975Z,100228.78
2023-04-15T05:07:02.384Z,100229.69
2023-04-15T05:09:32.528Z,100235.78
2023-04-15T05:12:02.601Z,100234.06
2023-04-15T05:14:30.276Z,100242.88
2023-04-15T05:16:57.245Z,100218.16
2023-04-15T05:19:25.154Z,100224.31
2023-04-15T05:21:52.720Z,100236.59
2023-04-15T05:24:20.065Z,100250.78
2023-04-15T05:26:47.427Z,100238.38
2023-04-15T05:29:14.862Z,100237.47
2023-04-15T05:31:42.343Z,100248.78
2023-04-15T05:34:11.885Z,100265.50
2023-04-15T05:36:39.025Z,100268.91
2023-04-15T05:39:07.248Z,100253.88
2023-04-15T05:41:35.898Z,100261.69
2023-04-15T05:44:03.296Z,100263.28
2023-04-15T05:46:30.794Z,100264.06
2023-04-15T05:48:58.707Z,100262.22
2023-04-15T05:51:26.559Z,100256.00
2023-04-15T05:53:54.018Z,100254.94
2023-04-15T05:56:20.993Z,100263.53
2023-04-15T05:58:48.394Z,100272.28
2023-04-15T06:01:15.632Z,100279.13
2023-04-15T06:03:44.171Z,100280.78
2023-04-15T06:06:11.276Z,100290.41
2023-04-15T06:08:38.890Z,100288.47
2023-04-15T06:11:06.248Z,100290.94
2023-04-15T06:13:34.103Z,100289.78
2023-04-15T06:16:01.211Z,100284.34
2023-04-15T06:18:28.691Z,100285.88
2023-04-15T06:20:55.760Z,100290.13
2023-04-15T06:23:23.158Z,100288.19
2023-04-15T06:25:50.351Z,100293.28
2023-04-15T06:28:17.805Z,100290.50
2023-04-15T06:30:45.765Z,100298.22
2023-04-15T06:33:13.748Z,100289.97
2023-04-15T06:35:41.196Z,100288.88
2023-04-15T06:38:08.665Z,100291.19
2023-04-15T06:40:35.717Z,100287.25
2023-04-15T06:43:03.103Z,100300.25
2023-04-15T06:45:30.311Z,100287.69
2023-04-15T06:47:57.655Z,100283.88
2023-04-15T06:50:24.876Z,100290.63
2023-04-15T06:52:53.719Z,100291.34
2023-04-15T06:55:23.611Z,100298.47
2023-04-15T06:57:50.921Z,100296.59
2023-04-15T07:00:18.498Z,100297.31
2023-04-15T07:02:47.029Z,100304.28
2023-04-15T07:05:14.638Z,100300.91
2023-04-15T07:07:42.376Z,100305.41
2023-04-15T07:10:10.110Z,100294.06
2023-04-15T07:12:37.975Z,100294.06
2023-04-15T07:15:05.837Z,100299.47
2023-04-15T07:17:34.895Z,100313.47
2023-04-15T07:20:03.104Z,100301.97
2023-04-15T07:22:30.487Z,100310.97
2023-04-15T07:24:57.492Z,100323.13
2023-04-15T07:27:25.003Z,100322.88
2023-04-15T07:29:52.452Z,100318.06
2023-04-15T07:32:20.824Z,100334.81
2023-04-15T07:34:48.266Z,100344.25
2023-04-15T07:37:15.912Z,100341.28
2023-04-15T07:39:42.902Z,100334.88
2023-04-15T07:42:10.759Z,100329.34
2023-04-15T07:44:38.057Z,100336.16
2023-04-15T07:47:07.103Z,100337.50
2023-04-15T07:49:36.672Z,100329.38
2023-04-15T07:52:05.245Z,100336.59
2023-04-15T07:54:32.472Z,100327.75
2023-04-15T07:56:59.912Z,100327.16
2023-04-15T07:59:30.299Z,100339.09
2023-04-15T08:01:59.619Z,100332.59
2023-04-15T08:04:30.249Z,100331.50
2023-04-15T08:06:58.218Z,100339.00
2023-04-15T08:09:25.307Z,100350.38
2023-04-15T08:11:53.578Z,100338.94
2023-04-15T08:14:24.247Z,100345.81
2023-04-15T08:16:52.500Z,100344.03
2023-04-15T08:19:19.848Z,100336.53
2023-04-15T08:21:47.872Z,100345.91
2023-04-15T08:24:15.740Z,100337.22
2023-04-15T08:26:44.321Z,100339.88
2023-04-15T08:29:12.169Z,100336.91
2023-04-15T08:31:39.709Z,100337.41
2023-04-15T08:34:08.665Z,100338.03
2023-04-15T08:36:36.973Z,100340.81
2023-04-15T08:39:05.133Z,100349.06
2023-04-15T08:41:59.392Z,100357.78
2023-04-15T08:44:28.743Z,100342.72
2023-04-15T08:47:02.896Z,100341.69
2023-04-15T08:52:13.337Z,100332.59
2023-04-15T08:54:41.501Z,100331.19
2023-04-15T08:57:09.471Z,100334.88
2023-04-15T08:59:37.315Z,100319.47
2023-04-15T09:02:11.116Z,100328.41
2023-04-15T09:04:38.274Z,100327.56
2023-04-15T09:07:06.586Z,100323.84
2023-04-15T09:09:37.568Z,100329.09
2023-04-15T09:12:04.896Z,100316.13
2023-04-15T09:14:32.914Z,100319.31
2023-04-15T09:17:02.652Z,100314.53
2023-04-15T09:19:31.108Z,100324.19
2023-04-15T09:21:59.718Z,100328.25
2023-04-15T09:24:39.344Z,100324.97
2023-04-15T09:27:08.474Z,100329.03
2023-04-15T09:29:35.422Z,100340.97
2023-04-15T09:32:19.105Z,100356.91
2023-04-15T09:34:47.169Z,100361.41
2023-04-15T09:37:32.279Z,100364.41
2023-04-15T09:39:59.786Z,100366.19
2023-04-15T09:42:28.397Z,100370.81
2023-04-15T09:44:55.440Z,100372.72
2023-04-15T09:47:32.546Z,100377.47
2023-04-15T09:50:01.097Z,100383.91
2023-04-15T09:52:29.078Z,100394.97
2023-04-15T09:54:59.316Z,100398.81
2023-04-15T09:57:34.641Z,100390.44
2023-04-15T10:00:01.648Z,100390.00
2023-04-15T10:02:35.199Z,100386.63
2023-04-15T10:05:03.280Z,100388.69
2023-04-15T10:07:35.147Z,100395.13
2023-04-15T10:10:06.102Z,100397.06
2023-04-15T10:12:34.439Z,100390.78
2023-04-15T10:15:05.487Z,100389.06
2023-04-15T10:17:35.931Z,100396.13
2023-04-15T10:20:05.427Z,100396.91
2023-04-15T10:22:33.349Z,100398.56
2023-04-15T10:25:01.280Z,100402.16
2023-04-15T10:27:29.416Z,100405.53
2023-04-15T10:29:57.465Z,100410.84
2023-04-15T10:32:25.803Z,100417.16
2023-04-15T10:34:54.977Z,100410.94
2023-04-15T10:37:33.686Z,100403.00
2023-04-15T10:40:00.769Z,100398.72
2023-04-15T10:42:36.229Z,100403.00
2023-04-15T10:45:17.058Z,100400.44
2023-04-15T10:47:51.685Z,100414.31
2023-04-15T10:50:19.360Z,100411.38
2023-04-15T10:52:49.440Z,100415.47
2023-04-15T10:55:21.578Z,100408.78
2023-04-15T10:57:58.662Z,100412.00
2023-04-15T11:00:27.416Z,100417.03
2023-04-15T11:03:12.240Z,100413.59
2023-04-15T11:05:42.652Z,100413.97
2023-04-15T11:08:12.279Z,100415.16
2023-04-15T11:10:39.100Z,100422.63
2023-04-15T11:13:11.740Z,100422.75
2023-04-15T11:15:47.193Z,100421.28
2023-04-15T11:18:17.223Z,100433.22
2023-04-15T11:20:50.724Z,100437.19
2023-04-15T11:23:20.787Z,100442.53
2023-04-15T11:25:49.180Z,100437.97
2023-04-15T11:28:20.473Z,100444.19
2023-04-15T11:30:48.391Z,100441.53
2023-04-15T11:33:15.659Z,100439.88
2023-04-15T11:35:45.567Z,100427.03
2023-04-15T11:38:14.475Z,100433.34
2023-04-15T11:40:44.559Z,100431.66
2023-04-15T11:43:22.159Z,100430.94
2023-04-15T11:45:53.401Z,100432.19
2023-04-15T11:48:34.077Z,100438.69
2023-04-15T11:51:03.077Z,100428.88
2023-04-15T11:53:49.158Z,100433.13
2023-04-15T11:56:24.406Z,100426.88
2023-04-15T11:59:00.196Z,100442.69
2023-04-15T12:01:39.026Z,100454.31
2023-04-15T12:04:17.857Z,100459.94
2023-04-15T12:06:45.874Z,100467.94
2023-04-15T12:09:14.435Z,100462.75
2023-04-15T12:11:59.772Z,100446.81
2023-04-15T12:14:32.428Z,100444.16
2023-04-15T12:17:05.093Z,100434.34
2023-04-15T12:19:37.626Z,100452.94
2023-04-15T12:22:13.904Z,100447.53
2023-04-15T12:24:48.480Z,100442.22
2023-04-15T12:27:16.722Z,100446.63
2023-04-15T12:29:45.916Z,100431.41
2023-04-15T12:32:15.228Z,100421.53
2023-04-15T12:34:49.683Z,100398.34
2023-04-15T12:37:20.110Z,100402.34
2023-04-15T12:39:50.336Z,100406.88
2023-04-15T12:42:18.496Z,100415.63
2023-04-15T12:44:47.203Z,100421.97
2023-04-15T12:47:15.570Z,100426.66
2023-04-15T12:49:42.987Z,100422.97
2023-04-15T12:52:10.079Z,100422.56
2023-04-15T12:54:37.623Z,100412.50
2023-04-15T12:57:07.191Z,100401.66
2023-04-15T12:59:36.653Z,100399.09
2023-04-15T13:02:04.322Z,100375.25
2023-04-15T13:04:32.577Z,100373.06
2023-04-15T13:07:00.133Z,100384.97
2023-04-15T13:09:27.616Z,100393.88
2023-04-15T13:11:57.822Z,100381.94
2023-04-15T13:14:25.834Z,100381.81
2023-04-15T13:16:54.327Z,100398.72
2023-04-15T13:19:21.519Z,100398.03
2023-04-15T13:21:49.350Z,100405.66
2023-04-15T13:24:16.670Z,100406.22
2023-04-15T13:26:44.270Z,100408.81
2023-04-15T13:29:12.522Z,100414.72
2023-04-15T13:31:40.050Z,100410.34
2023-04-15T13:34:10.473Z,100415.50
2023-04-15T13:36:37.600Z,100410.06
2023-04-15T13:39:06.149Z,100404.81
2023-04-15T13:41:38.377Z,100404.81
2023-04-15T13:44:06.481Z,100403.69
2023-04-15T13:46:34.155Z,100398.34
2023-04-15T13:49:01.974Z,100415.81
2023-04-15T13:51:29.401Z,100420.47
2023-04-15T13:53:59.491Z,100411.50
2023-04-15T13:56:26.772Z,100420.28
2023-04-15T13:59:00.377Z,100412.56
2023-04-15T14:01:27.532Z,100422.84
2023-04-15T14:03:55.641Z,100425.44
2023-04-15T14:06:23.161Z,100428.75
2023-04-15T14:08:50.617Z,100431.50
2023-04-15T14:11:17.600Z,100429.78
2023-04-15T14:13:44.975Z,100425.59
2023-04-15T14:16:12.090Z,100434.13
2023-04-15T14:18:40.518Z,100425.44
2023-04-15T14:21:07.621Z,100426.78
2023-04-15T14:23:35.666Z,100414.78
2023-04-15T14:26:02.695Z,100434.44
2023-04-15T14:28:30.250Z,100432.03
2023-04-15T14:30:58.301Z,100430.63
2023-04-15T14:33:25.713Z,100422.81
2023-04-15T14:35:52.855Z,100424.34
2023-04-15T14:38:22.653Z,100426.16
2023-04-15T14:40:49.748Z,100413.94
2023-04-15T14:43:17.282Z,100417.56
2023-04-15T14:45:45.409Z,100413.75
2023-04-15T14:48:13.634Z,100418.00
2023-04-15T14:50:40.838Z,100416.63
2023-04-15T14:53:08.266Z,100419.94
2023-04-15T14:55:35.274Z,100420.63
2023-04-15T14:58:05.008Z,100425.13
2023-04-15T15:00:32.417Z,100426.66
2023-04-15T15:03:00.213Z,100423.66
2023-04-15T15:05:31.587Z,100432.06
2023-04-15T15:08:00.313Z,100423.63
2023-04-15T15:10:32.766Z,100428.44
2023-04-15T15:13:16.754Z,100430.56
2023-04-15T15:15:44.193Z,100430.13
2023-04-15T15:18:15.058Z,100430.53
2023-04-15T15:20:45.926Z,100438.56
2023-04-15T15:23:13.351Z,100438.56
2023-04-15T15:25:40.678Z,100438.75
2023-04-15T15:28:08.577Z,100441.72
2023-04-15T15:30:41.741Z,100448.31
2023-04-15T15:33:09.118Z,100437.13
2023-04-15T15:35:36.418Z,100443.50
2023-04-15T15:38:06.437Z,100448.88
2023-04-15T15:40:33.768Z,100435.69
2023-04-15T15:43:01.346Z,100430.47
2023-04-15T15:45:30.875Z,100433.28
2023-04-15T15:47:59.441Z,100435.25
2023-04-15T15:50:27.010Z,100433.59
2023-04-15T15:52:56.324Z,100441.59
2023-04-15T15:55:25.502Z,100428.59
2023-04-15T15:57:54.499Z,100438.53
2023-04-15T16:00:23.282Z,100446.69
2023-04-15T16:03:05.930Z,100449.50
2023-04-15T16:05:34.722Z,100458.53
2023-04-15T16:08:02.545Z,100458.53
2023-04-15T16:10:30.586Z,100457.88
2023-04-15T16:12:58.066Z,100461.56
2023-04-15T16:15:25.804Z,100471.44
2023-04-15T16:17:53.309Z,100462.88
2023-04-15T16:20:20.501Z,100467.59
2023-04-15T16:22:47.956Z,100463.59
2023-04-15T16:25:14.914Z,100470.84
2023-04-15T16:27:54.665Z,100474.03
2023-04-15T16:30:24.717Z,100480.44
2023-04-15T16:32:54.300Z,100480.72
2023-04-15T16:35:21.398Z,100484.63
2023-04-15T16:37:49.010Z,100485.78
2023-04-15T16:40:16.585Z,100489.72
2023-04-15T16:42:44.369Z,100498.84
2023-04-15T16:45:12.194Z,100498.25
2023-04-15T16:47:40.707Z,100503.00
2023-04-15T16:50:09.848Z,100511.19
2023-04-15T16:52:37.201Z,100516.75
2023-04-15T16:55:05.256Z,100514.31
2023-04-15T16:58:00.346Z,100524.31
2023-04-15T17:00:20.346Z,100532.56
2023-04-15T17:02:47.879Z,100534.59
2023-04-15T17:05:15.112Z,100530.28
2023-04-15T17:07:42.567Z,100539.34
2023-04-15T17:10:09.729Z,100546.56
2023-04-15T17:12:37.150Z,100548.56
2023-04-15T17:15:09.188Z,100547.84
2023-04-15T17:17:37.918Z,100552.47
2023-04-15T17:20:05.580Z,100557.06
2023-04-15T17:22:34.967Z,100564.31
2023-04-15T17:25:03.277Z,100564.53
2023-04-15T17:27:33.631Z,100575.31
2023-04-15T17:30:01.063Z,100574.56
2023-04-15T17:32:32.107Z,100573.91
2023-04-15T17:35:01.371Z,100572.28
2023-04-15T17:37:36.819Z,100576.06
2023-04-15T17:40:08.011Z,100585.09
2023-04-15T17:42:38.427Z,100587.13
2023-04-15T17:45:05.956Z,100595.38
2023-04-15T17:47:33.545Z,100597.38
2023-04-15T17:53:03.948Z,100602.38
2023-04-15T17:55:32.853Z,100602.59
2023-04-15T17:58:00.949Z,100609.91
2023-04-15T18:00:28.676Z,100614.56
2023-04-15T18:02:59.565Z,100606.94
2023-04-15T18:05:26.893Z,100614.13
2023-04-15T18:07:54.581Z,100618.63
2023-04-15T18:10:21.994Z,100628.56
2023-04-15T18:12:49.843Z,100630.25
2023-04-15T18:15:18.153Z,100635.53
2023-04-15T18:17:46.431Z,100644.44
2023-04-15T18:20:15.372Z,100637.44
2023-04-15T18:22:43.751Z,100635.09
2023-04-15T18:25:11.012Z,100638.91
2023-04-15T18:27:41.442Z,100644.44
2023-04-15T18:30:10.898Z,100654.50
2023-04-15T18:32:41.324Z,100647.03
2023-04-15T18:35:09.106Z,100658.69
2023-04-15T18:37:36.510Z,100664.31
2023-04-15T18:40:04.025Z,100659.22
2023-04-15T18:42:31.448Z,100664.66
2023-04-15T18:44:58.727Z,100662.09
2023-04-15T18:47:27.724Z,100661.31
2023-04-15T18:49:55.197Z,100668.50
2023-04-15T18:52:24.188Z,100666.84
2023-04-15T18:54:52.342Z,100674.88
2023-04-15T18:57:37.847Z,100669.72
2023-04-15T19:00:08.253Z,100672.50
2023-04-15T19:02:35.188Z,100670.88
2023-04-15T19:05:04.358Z,100678.06
2023-04-15T19:07:33.951Z,100682.59
2023-04-15T19:10:03.729Z,100674.81
2023-04-15T19:12:30.871Z,100684.66
2023-04-15T19:15:01.467Z,100682.13
2023-04-15T19:17:28.615Z,100675.13
2023-04-15T19:19:56.277Z,100669.00
2023-04-15T19:22:24.847Z,100674.41
2023-04-15T19:24:52.834Z,100675.44
2023-04-15T19:27:21.804Z,100677.38
2023-04-15T19:29:49.519Z,100688.03
2023-04-15T19:32:18.512Z,100691.63
2023-04-15T19:34:46.050Z,100691.75
2023-04-15T19:37:13.310Z,100690.97
2023-04-15T19:39:42.312Z,100691.09
2023-04-15T19:42:09.306Z,100699.06
2023-04-15T19:44:38.072Z,100700.00
2023-04-15T19:47:05.621Z,100699.13
2023-04-15T19:49:33.577Z,100694.78
2023-04-15T19:52:01.486Z,100700.16
2023-04-15T19:54:29.328Z,100702.75
2023-04-15T19:57:04.576Z,100698.41
2023-04-15T19:59:33.333Z,100712.50
2023-04-15T20:02:03.344Z,100708.19
2023-04-15T20:04:31.495Z,100708.31
2023-04-15T20:06:58.617Z,100708.44
2023-04-15T20:09:26.284Z,100706.91
2023-04-15T20:12:09.484Z,100705.22
2023-04-15T20:14:40.692Z,100709.66
2023-04-15T20:17:10.431Z,100702.75
2023-04-15T20:19:37.867Z,100716.81
2023-04-15T20:22:06.177Z,100705.38
2023-04-15T20:24:33.758Z,100709.69
2023-04-15T20:27:00.826Z,100710.41
2023-04-15T20:29:28.176Z,100713.84
2023-04-15T20:31:56.137Z,100704.19
2023-04-15T20:34:23.513Z,100711.25
2023-04-15T20:36:50.906Z,100708.66
2023-04-15T20:39:18.185Z,100707.78
2023-04-15T20:41:45.266Z,100713.00
2023-04-15T20:44:12.627Z,100713.84
2023-04-15T20:46:39.650Z,100712.03
2023-04-15T20:49:07.236Z,100715.47
2023-04-15T20:51:37.820Z,100719.97
2023-04-15T20:54:06.511Z,100717.44
2023-04-15T20:56:33.991Z,100722.63
2023-04-15T20:59:01.846Z,100728.69
2023-04-15T21:01:30.524Z,100724.25
2023-04-15T21:03:59.112Z,100741.78
2023-04-15T21:06:27.290Z,100739.91
2023-04-15T21:08:54.691Z,100739.91
2023-04-15T21:11:40.621Z,100738.16
2023-04-15T21:14:09.282Z,100734.69
2023-04-15T21:16:36.379Z,100732.97
2023-04-15T21:19:04.043Z,100740.97
2023-04-15T21:21:32.103Z,100740.13
2023-04-15T21:23:59.835Z,100748.91
2023-04-15T21:26:26.868Z,100754.09
2023-04-15T21:28:54.771Z,100749.66
2023-04-15T21:31:23.569Z,100755.81
2023-04-15T21:33:51.370Z,100755.69
2023-04-15T21:36:19.935Z,100749.47
2023-04-15T21:38:47.402Z,100749.31
2023-04-15T21:41:14.566Z,100750.91
2023-04-15T21:43:42.143Z,100756.13
2023-04-15T21:46:22.778Z,100754.25
2023-04-15T21:48:55.767Z,100766.44
2023-04-15T21:51:23.111Z,100774.28
2023-04-15T21:53:50.551Z,100767.25
2023-04-15T21:56:17.522Z,100769.00
2023-04-15T21:58:44.847Z,100775.94
2023-04-15T22:01:11.896Z,100774.03
2023-04-15T22:03:39.645Z,100773.06
2023-04-15T22:06:07.155Z,100777.44
2023-04-15T22:08:41.769Z,100786.13
2023-04-15T22:11:30.030Z,100778.13
2023-04-15T22:13:58.722Z,100772.72
2023-04-15T22:16:26.647Z,100777.91
2023-04-15T22:18:55.031Z,100778.59
2023-04-15T22:21:22.596Z,100759.97
2023-04-15T22:23:49.976Z,100754.56
2023-04-15T22:26:17.670Z,100750.09
2023-04-15T22:28:45.581Z,100757.97
2023-04-15T22:31:13.788Z,100764.09
2023-04-15T22:33:42.302Z,100774.69
2023-04-15T22:36:09.567Z,100774.56
2023-04-15T22:38:37.005Z,100774.50
2023-04-15T22:41:04.045Z,100779.72
2023-04-15T22:43:31.510Z,100784.09
2023-04-15T22:45:58.600Z,100773.44
2023-04-15T22:48:26.325Z,100782.22
2023-04-15T22:50:53.723Z,100772.47
2023-04-15T22:53:21.318Z,100781.25
2023-04-15T22:55:48.772Z,100780.25
2023-04-15T22:58:17.191Z,100781.09
2023-04-15T23:00:44.843Z,100783.69
2023-04-15T23:03:12.457Z,100788.91
2023-04-15T23:05:41.423Z,100786.25
2023-04-15T23:08:09.079Z,100798.50
2023-04-15T23:10:37.063Z,100797.53
2023-04-15T23:13:04.476Z,100808.97
2023-04-15T23:15:31.830Z,100813.41
2023-04-15T23:18:00.587Z,100817.03
2023-04-15T23:20:27.660Z,100818.03
2023-04-15T23:22:54.961Z,100817.22
2023-04-15T23:25:22.820Z,100812.06
2023-04-15T23:27:50.329Z,100810.44
2023-04-15T23:30:17.374Z,100813.16
2023-04-15T23:32:44.823Z,100808.75
2023-04-15T23:35:12.114Z,100814.06
2023-04-15T23:37:39.569Z,100824.66
2023-04-15T23:40:07.241Z,100813.19
2023-04-15T23:42:34.559Z,100827.34
2023-04-15T23:45:01.758Z,100830.06
2023-04-15T23:47:29.137Z,100828.41
2023-04-15T23:49:56.539Z,100834.66
2023-04-15T23:52:24.157Z,100832.03
2023-04-15T23:54:51.266Z,100836.53
2023-04-15T23:57:19.850Z,100838.34
2023-04-15T23:59:46.805Z,100842.91
